Spencer, WI

9:10 PM CDT on September 14, 2014 (GMT -0500)
Central Wisconsin | Change Station
CLOSE
Current Station
Airport
Location: Mosinee,
Elevation: 1276 ft
Nearby Weather Stations

Elev 1276 ft 44.78 °N, 89.67 °W | Updated 20 minutes ago

Partly Cloudy
Partly Cloudy
54 °F
Feels Like 54 °F
N
4
Wind Variable Wind from West

Today
High -- | Low -- °F
--% Chance of Precip.
Yesterday
High -- | Low -- °F
Precip. -- in
6:38 AM 7:13 PM
Waning Gibbous, 60% visible
Pressure 30.11 in
Visibility 10.0 miles
Clouds Clear
Dew Point 45 °F
Humidity 72%
Rainfall 0.00 in
Snow Depth Not available.
UV 0 out of 12
Pollen 4.80 out of 12
Air Quality Not available.
Flu Activity Not available.
METAR KCWA 150150Z 26003KT 10SM SKC 12/07 A3011

More Conditions Fewer Conditions

Pressure 30.11 in
Visibility 10.0 miles
Clouds Clear
Dew Point 45 °F
Humidity 72%
Rainfall 0.00 in
Snow Depth Not available.
UV 0 out of 12
Pollen 4.80 out of 12
Air Quality Not available.
Flu Activity Not available.
METAR KCWA 150150Z 26003KT 10SM SKC 12/07 A3011

More Conditions Fewer Conditions

10-Day Weather Forecast

Almanac

Astronomy

Sep. 14, 2014 Rise Set
Actual Time 6:38 AM CDT 7:13 PM CDT
Civil Twilight 6:09 AM CDT 7:43 PM CDT
Nautical Twilight 5:34 AM CDT 8:17 PM CDT
Astronomical Twilight 4:58 AM CDT 8:53 PM CDT
Moon 10:52 PM CDT (9/14) 12:59 PM CDT (9/14)
Length of Visible Light 13h 33m
Length of Day
12h 34m
Tomorrow will be 3m 3s shorter.
Waning Gibbous, 60% of the Moon is Illuminated
Today
Waning Gibbous
Sep 15
Last Quarter
Sep 24
New
Oct 1
First Quarter
Oct 8
Full

Today's Extremes

State Highs State Lows

Community

WunderPhotos

Upload Photos

1,753,371 photos uploaded!

Nearby

Snow Depth

Station Depth Elevation
No new snow has been reported.

Earthquake Activity

City Distance Mag. Time & Date
No recent earthquake activity has been reported nearby.
Minimum magnitude displayed is 2.5.

Coastal Water Temperatures

Place Temperature
No Stations Reporting

Nearby Weather Stations